Time;durP1;ratioP1;P1;durP2;ratioP2;P2;SDS_P1;SDS_P2;PMS_P1;PMS_P2;Temp;Humidity;BMP_temperature;BMP_pressure;BME280_temperature;BME280_humidity;BME280_pressure;Samples;Min_cycle;Max_cycle;Signal;HPM_P1;HPM_P2
2021/06/12 00:00:52;;;;;;;8.98;8.18;;;;;;;18.53;65.89;100673.41;4904235;28;98192;-79
2021/06/12 00:03:19;;;;;;;9.50;8.52;;;;;;;18.53;65.66;100666.03;4886976;28;125020;-75
2021/06/12 00:05:45;;;;;;;9.63;8.73;;;;;;;18.30;66.29;100676.19;4887003;28;118530;-79
2021/06/12 00:08:11;;;;;;;9.57;8.57;;;;;;;18.24;67.05;100676.66;4918244;28;126845;-74
2021/06/12 00:10:38;;;;;;;10.65;8.55;;;;;;;18.46;66.35;100673.88;4921422;28;99439;-78
2021/06/12 00:13:04;;;;;;;9.65;8.75;;;;;;;18.61;65.90;100673.44;4921372;28;98744;-74
2021/06/12 00:15:30;;;;;;;11.88;10.68;;;;;;;18.69;65.48;100671.84;4925408;28;98868;-78
2021/06/12 00:17:56;;;;;;;11.50;10.40;;;;;;;18.69;65.78;100674.59;4923102;28;97959;-74
2021/06/12 00:20:29;;;;;;;11.20;10.05;;;;;;;18.67;65.60;100676.84;4939985;28;117540;-78
2021/06/12 00:22:55;;;;;;;13.35;12.05;;;;;;;18.67;65.48;100673.28;4938344;28;98346;-78
2021/06/12 00:25:29;;;;;;;13.13;11.80;;;;;;;18.46;65.77;100671.13;4905609;28;113399;-73
2021/06/12 00:27:56;;;;;;;15.30;13.88;;;;;;;18.21;66.78;100664.44;4938563;28;112292;-74
2021/06/12 00:30:23;;;;;;;18.08;16.17;;;;;;;18.37;65.99;100660.19;4921628;28;98287;-78
2021/06/12 00:32:49;;;;;;;18.05;16.13;;;;;;;18.42;66.61;100661.16;4895687;28;100224;-77
2021/06/12 00:35:15;;;;;;;15.75;14.02;;;;;;;18.53;66.39;100655.09;4918212;28;112996;-78
2021/06/12 00:37:41;;;;;;;13.77;12.40;;;;;;;18.33;66.60;100656.47;4919993;28;126732;-74
2021/06/12 00:40:09;;;;;;;14.23;12.80;;;;;;;18.45;66.86;100660.53;4912968;28;98212;-75
2021/06/12 00:42:39;;;;;;;14.07;12.65;;;;;;;18.51;66.59;100665.56;4914141;28;98217;-74
2021/06/12 00:45:13;;;;;;;12.48;11.18;;;;;;;18.50;66.72;100661.19;4937105;28;98917;-77
2021/06/12 00:47:39;;;;;;;11.50;10.50;;;;;;;18.45;67.06;100658.63;4922026;28;97877;-74
2021/06/12 00:50:07;;;;;;;10.80;9.90;;;;;;;18.51;66.85;100670.19;4940000;28;105883;-73
2021/06/12 00:52:33;;;;;;;10.52;9.52;;;;;;;18.54;66.58;100658.63;4940745;28;112027;-74
2021/06/12 00:55:00;;;;;;;10.02;9.13;;;;;;;18.52;66.22;100664.44;4939384;28;99098;-77
2021/06/12 00:57:26;;;;;;;10.95;9.95;;;;;;;18.08;67.59;100662.63;4937618;28;127447;-74
2021/06/12 00:59:52;;;;;;;11.00;10.00;;;;;;;18.32;67.10;100665.00;4940566;28;98228;-77
2021/06/12 01:02:18;;;;;;;10.38;9.45;;;;;;;18.36;67.09;100664.03;4920186;28;115225;-74
2021/06/12 01:04:44;;;;;;;11.55;10.38;;;;;;;18.10;66.88;100654.94;4921358;28;128381;-78
2021/06/12 01:07:10;;;;;;;11.57;10.45;;;;;;;17.85;68.09;100659.94;4923702;28;127451;-77
2021/06/12 01:09:36;;;;;;;11.65;10.55;;;;;;;18.13;67.56;100662.50;4938768;28;118152;-73
2021/06/12 01:12:27;;;;;;;11.80;10.75;;;;;;;17.99;67.95;100659.03;4942975;28;112343;-78
2021/06/12 01:14:59;;;;;;;12.13;10.98;;;;;;;18.04;68.35;100662.44;4943099;28;98723;-74
2021/06/12 01:17:52;;;;;;;12.05;10.95;;;;;;;17.99;68.47;100653.56;4922856;28;98857;-77
2021/06/12 01:21:05;;;;;;;11.65;10.45;;;;;;;17.97;69.04;100648.44;4909247;28;97960;-77
2021/06/12 01:24:16;;;;;;;11.95;10.95;;;;;;;17.93;68.86;100660.28;4908022;28;99818;-77
2021/06/12 01:27:22;;;;;;;11.52;10.40;;;;;;;17.59;70.45;100659.69;4923605;28;98940;-73
2021/06/12 01:30:15;;;;;;;10.95;9.85;;;;;;;17.85;68.82;100657.19;4922238;28;100131;-74
2021/06/12 01:32:55;;;;;;;11.27;10.18;;;;;;;18.15;68.42;100655.59;4931103;28;97968;-77
2021/06/12 01:35:40;;;;;;;11.45;10.35;;;;;;;18.04;68.79;100648.00;4911963;28;98871;-77
2021/06/12 01:38:08;;;;;;;11.70;10.65;;;;;;;17.97;69.04;100640.25;4941382;28;98808;-78
2021/06/12 01:40:36;;;;;;;11.00;9.98;;;;;;;18.07;68.98;100647.38;4923885;28;121052;-77
2021/06/12 01:43:04;;;;;;;10.88;9.88;;;;;;;18.08;68.55;100644.34;4940397;28;98013;-77
2021/06/12 01:45:30;;;;;;;11.55;10.43;;;;;;;18.02;68.89;100636.59;4933743;28;119593;-78
2021/06/12 01:47:56;;;;;;;11.43;10.32;;;;;;;18.10;68.82;100638.56;4922420;28;128705;-77
2021/06/12 01:50:24;;;;;;;11.00;9.90;;;;;;;18.22;68.58;100635.25;4904822;28;126082;-78
2021/06/12 01:52:50;;;;;;;13.60;10.75;;;;;;;17.75;69.41;100632.91;4924061;28;98047;-77
2021/06/12 01:55:19;;;;;;;11.40;10.38;;;;;;;17.77;69.42;100630.69;4930068;28;117399;-74
2021/06/12 01:57:46;;;;;;;11.65;10.60;;;;;;;17.72;69.75;100627.25;4941674;28;98324;-77
2021/06/12 02:00:12;;;;;;;11.95;10.75;;;;;;;17.56;70.24;100632.25;4923926;28;98664;-77
2021/06/12 02:02:40;;;;;;;11.68;10.55;;;;;;;17.83;69.83;100623.97;4923210;28;97884;-73
2021/06/12 02:05:14;;;;;;;10.68;9.68;;;;;;;17.56;70.30;100633.06;4924820;28;98243;-73
2021/06/12 02:07:41;;;;;;;10.85;9.85;;;;;;;17.81;70.02;100628.16;4940188;28;98992;-77
2021/06/12 02:10:09;;;;;;;10.40;9.40;;;;;;;17.51;70.65;100627.75;4908245;28;97855;-76
2021/06/12 02:12:35;;;;;;;10.98;9.98;;;;;;;17.70;70.38;100630.28;4940060;28;106778;-76
2021/06/12 02:15:03;;;;;;;10.73;9.77;;;;;;;17.72;70.88;100629.97;4924373;28;99482;-76
2021/06/12 02:17:31;;;;;;;11.10;10.00;;;;;;;17.57;70.88;100631.16;4938534;28;116959;-76
2021/06/12 02:19:57;;;;;;;11.02;10.02;;;;;;;17.73;69.99;100624.22;4905695;28;97991;-76
2021/06/12 02:22:23;;;;;;;11.27;10.00;;;;;;;17.88;69.98;100618.41;4920772;28;108648;-77
2021/06/12 02:24:49;;;;;;;10.15;9.25;;;;;;;18.00;69.88;100625.19;4922452;28;126216;-76
2021/06/12 02:27:18;;;;;;;10.55;9.45;;;;;;;18.08;69.34;100630.69;4922835;28;98860;-76
2021/06/12 02:29:44;;;;;;;10.73;9.73;;;;;;;18.00;69.48;100623.28;4921606;28;114476;-77
2021/06/12 02:32:11;;;;;;;10.85;9.75;;;;;;;18.13;69.98;100621.56;4937666;28;111349;-73
2021/06/12 02:34:37;;;;;;;11.57;10.38;;;;;;;17.94;70.09;100624.53;4888166;28;100837;-76
2021/06/12 02:37:07;;;;;;;11.07;10.07;;;;;;;18.12;69.71;100625.44;4923634;28;97971;-76
2021/06/12 02:39:34;;;;;;;11.32;10.32;;;;;;;18.07;69.53;100615.44;4918334;28;98697;-76
2021/06/12 02:42:00;;;;;;;10.60;9.63;;;;;;;18.12;69.67;100625.44;4941746;28;97931;-76
2021/06/12 02:44:27;;;;;;;11.93;10.82;;;;;;;17.86;70.45;100626.09;4920743;28;98935;-76
2021/06/12 02:46:57;;;;;;;12.13;11.05;;;;;;;17.93;69.88;100620.19;4921039;28;100154;-73
2021/06/12 02:49:26;;;;;;;11.60;10.48;;;;;;;18.01;69.66;100621.34;4907224;28;99638;-73
2021/06/12 02:51:58;;;;;;;11.05;10.13;;;;;;;18.01;69.89;100608.53;4916265;28;97832;-73
2021/06/12 02:54:25;;;;;;;12.18;10.98;;;;;;;18.14;70.13;100613.06;4889050;28;99027;-73
2021/06/12 02:56:55;;;;;;;11.57;10.48;;;;;;;18.19;69.89;100611.31;4919298;28;119522;-76
2021/06/12 02:59:21;;;;;;;11.20;10.07;;;;;;;18.31;69.14;100615.06;4939113;28;97899;-72
2021/06/12 03:01:47;;;;;;;11.38;10.27;;;;;;;18.20;69.51;100621.13;4940515;28;98531;-73
2021/06/12 03:04:15;;;;;;;10.80;9.70;;;;;;;18.19;69.43;100617.56;4922710;28;106971;-77
2021/06/12 03:06:41;;;;;;;11.13;10.00;;;;;;;18.15;70.34;100624.78;4940178;28;102108;-73
2021/06/12 03:09:07;;;;;;;10.98;10.00;;;;;;;18.09;70.22;100620.59;4907290;28;98110;-73
2021/06/12 03:11:33;;;;;;;11.02;9.93;;;;;;;18.25;69.58;100621.78;4923761;28;111208;-76
2021/06/12 03:13:59;;;;;;;11.00;9.90;;;;;;;18.24;69.87;100624.84;4907396;28;98713;-76
2021/06/12 03:16:25;;;;;;;11.13;10.13;;;;;;;18.05;70.38;100628.59;4922557;28;127935;-73
2021/06/12 03:18:52;;;;;;;10.75;9.80;;;;;;;18.18;69.76;100624.16;4938735;28;128344;-73
2021/06/12 03:21:27;;;;;;;11.30;10.23;;;;;;;18.11;70.26;100623.78;4918714;28;117456;-73
2021/06/12 03:23:53;;;;;;;10.68;9.68;;;;;;;18.20;70.08;100626.59;4937149;28;98285;-77
2021/06/12 03:26:19;;;;;;;10.98;9.88;;;;;;;18.27;69.79;100622.25;4939532;28;120765;-75
2021/06/12 03:28:45;;;;;;;11.15;10.15;;;;;;;18.26;69.78;100617.94;4920817;28;127238;-75
2021/06/12 03:31:11;;;;;;;11.48;9.82;;;;;;;18.33;69.79;100626.47;4906089;28;97820;-73
2021/06/12 03:33:37;;;;;;;11.55;10.55;;;;;;;18.43;69.30;100619.09;4939892;28;127043;-75
2021/06/12 03:36:04;;;;;;;12.75;11.48;;;;;;;18.14;70.10;100623.97;4905480;28;118078;-73
2021/06/12 03:38:30;;;;;;;13.07;11.77;;;;;;;18.17;69.90;100622.56;4906718;28;99213;-73
2021/06/12 03:40:57;;;;;;;13.23;12.02;;;;;;;18.10;70.07;100624.91;4941623;28;97874;-73
2021/06/12 03:43:24;;;;;;;12.35;11.25;;;;;;;18.34;69.96;100627.25;4923978;28;98568;-73
2021/06/12 03:45:54;;;;;;;11.70;10.65;;;;;;;18.48;69.27;100621.72;4939880;28;98807;-73
2021/06/12 03:48:21;;;;;;;11.75;10.63;;;;;;;18.65;69.40;100629.94;4937161;28;98409;-74
2021/06/12 03:50:47;;;;;;;11.52;10.55;;;;;;;18.77;69.13;100623.91;4939861;28;98824;-75
2021/06/12 03:53:13;;;;;;;12.20;11.00;;;;;;;18.89;68.76;100624.88;4922561;28;127066;-76
2021/06/12 03:55:39;;;;;;;12.30;11.20;;;;;;;19.01;67.94;100632.44;4940099;28;126286;-75
2021/06/12 03:58:05;;;;;;;13.73;10.73;;;;;;;19.01;68.57;100632.44;4921132;28;126008;-73
2021/06/12 04:00:31;;;;;;;11.40;10.27;;;;;;;18.93;68.67;100626.97;4907049;28;98141;-76
2021/06/12 04:02:57;;;;;;;11.55;10.38;;;;;;;19.06;68.77;100629.56;4922327;28;98402;-73
2021/06/12 04:05:23;;;;;;;11.38;10.35;;;;;;;19.12;68.66;100625.53;4919785;28;98654;-73
2021/06/12 04:07:49;;;;;;;12.65;10.75;;;;;;;19.05;68.79;100625.22;4903283;28;98464;-73
2021/06/12 04:10:16;;;;;;;11.88;10.73;;;;;;;18.95;68.95;100625.53;4870079;28;119741;-73
2021/06/12 04:12:42;;;;;;;12.52;11.23;;;;;;;19.03;68.76;100611.09;4920971;28;99019;-73
2021/06/12 04:15:08;;;;;;;14.02;10.15;;;;;;;19.12;68.97;100631.00;4921384;28;126837;-76
2021/06/12 04:17:34;;;;;;;11.68;10.57;;;;;;;19.15;68.61;100626.84;4935196;28;99393;-73
2021/06/12 04:20:01;;;;;;;11.02;10.10;;;;;;;19.27;68.50;100621.53;4938925;28;113321;-73
2021/06/12 04:22:27;;;;;;;11.75;10.57;;;;;;;19.15;68.72;100632.31;4922091;28;100977;-73
2021/06/12 04:24:53;;;;;;;11.32;10.43;;;;;;;19.11;68.86;100628.59;4922836;28;98398;-75
2021/06/12 04:27:19;;;;;;;11.43;10.30;;;;;;;19.34;68.35;100632.78;4935534;28;125933;-75
2021/06/12 04:29:45;;;;;;;12.18;10.98;;;;;;;19.42;68.54;100633.13;4920242;28;111056;-73
2021/06/12 04:32:11;;;;;;;11.18;10.18;;;;;;;19.50;68.24;100637.75;4937712;28;98177;-73
2021/06/12 04:34:37;;;;;;;11.68;10.52;;;;;;;19.46;67.77;100639.53;4919040;28;127243;-73
2021/06/12 04:37:04;;;;;;;11.43;10.05;;;;;;;19.53;68.25;100627.00;4920366;28;127400;-73
2021/06/12 04:39:30;;;;;;;11.80;10.52;;;;;;;19.43;68.25;100635.50;4920828;28;97880;-74
2021/06/12 04:41:57;;;;;;;11.30;10.02;;;;;;;19.56;68.25;100636.47;4937712;28;98786;-75
2021/06/12 04:44:23;;;;;;;13.25;11.20;;;;;;;19.64;67.40;100638.41;4937514;28;127283;-75
2021/06/12 04:46:49;;;;;;;11.80;10.63;;;;;;;19.89;67.15;100638.69;4902536;28;105021;-76
2021/06/12 04:49:15;;;;;;;10.88;9.88;;;;;;;20.06;66.86;100633.97;4908893;28;117995;-76
2021/06/12 04:51:41;;;;;;;11.18;10.23;;;;;;;20.09;66.27;100636.06;4938726;28;98318;-75
2021/06/12 04:54:07;;;;;;;11.25;10.25;;;;;;;20.28;66.03;100632.13;4921556;28;127811;-75
2021/06/12 04:56:34;;;;;;;10.65;9.65;;;;;;;20.30;65.91;100627.13;4931966;28;116205;-75
2021/06/12 04:59:00;;;;;;;11.23;10.13;;;;;;;20.61;64.97;100632.31;4936388;28;98401;-75
2021/06/12 05:01:26;;;;;;;11.45;10.35;;;;;;;20.70;64.43;100635.78;4935849;28;98613;-76
2021/06/12 05:03:52;;;;;;;12.57;10.02;;;;;;;20.64;64.09;100644.56;4936062;28;127807;-75
2021/06/12 05:06:18;;;;;;;11.65;10.23;;;;;;;21.04;63.18;100639.47;4936547;28;125780;-75
2021/06/12 05:08:45;;;;;;;10.45;9.45;;;;;;;21.05;62.59;100641.06;4935665;28;97843;-75
2021/06/12 05:11:11;;;;;;;10.45;9.45;;;;;;;20.95;63.02;100641.47;4903042;28;98078;-75
2021/06/12 05:13:37;;;;;;;10.85;9.73;;;;;;;20.80;63.18;100632.69;4915441;28;105262;-74
2021/06/12 05:16:04;;;;;;;11.10;9.43;;;;;;;20.77;63.70;100635.28;4932956;28;127638;-74
2021/06/12 05:18:41;;;;;;;10.00;9.20;;;;;;;20.74;63.85;100634.00;4937617;28;98060;-75
2021/06/12 05:21:08;;;;;;;10.40;9.48;;;;;;;20.75;63.44;100627.41;4937071;28;99019;-76
2021/06/12 05:23:34;;;;;;;9.77;8.88;;;;;;;20.85;63.62;100628.94;4935556;28;109556;-75
2021/06/12 05:26:04;;;;;;;10.45;8.35;;;;;;;21.18;63.19;100625.47;4903632;28;98793;-75
2021/06/12 05:28:30;;;;;;;10.13;9.13;;;;;;;21.28;62.38;100630.56;4899049;28;97973;-75
2021/06/12 05:30:57;;;;;;;10.00;8.93;;;;;;;21.41;62.44;100628.69;4916126;28;113366;-76
2021/06/12 05:33:24;;;;;;;9.98;8.45;;;;;;;21.72;62.10;100631.00;4934206;28;98379;-72
2021/06/12 05:35:51;;;;;;;9.48;8.20;;;;;;;21.66;61.62;100630.41;4936305;28;97935;-75
2021/06/12 05:38:18;;;;;;;9.05;8.20;;;;;;;21.98;61.15;100631.53;4917560;28;99041;-75
2021/06/12 05:40:44;;;;;;;9.18;8.27;;;;;;;22.20;60.47;100622.06;4934738;28;98952;-75
2021/06/12 05:43:10;;;;;;;8.93;8.02;;;;;;;22.20;59.07;100624.03;4934511;28;99474;-75
2021/06/12 05:45:37;;;;;;;9.07;8.38;;;;;;;22.36;58.74;100621.41;4918630;28;100428;-77
2021/06/12 05:48:03;;;;;;;8.57;7.70;;;;;;;23.13;57.62;100618.69;4938322;28;98301;-77
2021/06/12 05:50:29;;;;;;;8.48;7.60;;;;;;;23.99;54.82;100611.66;4936853;28;114026;-78
2021/06/12 05:52:55;;;;;;;8.40;7.30;;;;;;;23.80;54.28;100613.50;4936609;28;128239;-78
2021/06/12 05:55:21;;;;;;;7.80;7.00;;;;;;;25.27;51.24;100617.75;4937849;28;98360;-79
2021/06/12 05:57:47;;;;;;;7.95;7.25;;;;;;;25.39;50.34;100598.31;4883525;28;111041;-79
2021/06/12 06:00:14;;;;;;;7.65;6.95;;;;;;;27.34;45.20;100602.59;4919334;28;127630;-78
2021/06/12 06:02:40;;;;;;;7.43;6.80;;;;;;;26.68;46.28;100607.66;4930141;28;99339;-79
2021/06/12 06:05:07;;;;;;;7.82;7.13;;;;;;;26.93;45.88;100605.22;4938675;28;128318;-79
2021/06/12 06:07:33;;;;;;;7.55;6.75;;;;;;;28.03;43.60;100598.56;4934819;28;104510;-81
2021/06/12 06:09:59;;;;;;;9.50;6.50;;;;;;;26.38;46.53;100598.50;4920057;28;121065;-79
2021/06/12 06:12:25;;;;;;;7.53;6.80;;;;;;;25.59;48.77;100599.09;4903146;28;129769;-80
2021/06/12 06:14:51;;;;;;;7.38;6.68;;;;;;;25.35;49.59;100600.19;4919557;28;98148;-78
2021/06/12 06:17:17;;;;;;;7.25;6.30;;;;;;;25.22;50.89;100602.31;4920123;28;117793;-78
2021/06/12 06:19:43;;;;;;;7.88;7.18;;;;;;;25.33;48.87;100599.78;4909221;28;101106;-80
2021/06/12 06:22:09;;;;;;;6.88;6.28;;;;;;;26.64;47.07;100597.72;4918927;28;129083;-78
2021/06/12 06:24:35;;;;;;;6.35;5.75;;;;;;;26.13;48.32;100598.06;4932194;28;127841;-79
2021/06/12 06:27:01;;;;;;;6.88;6.25;;;;;;;26.96;45.93;100600.94;4921709;28;98066;-77
2021/06/12 06:29:27;;;;;;;7.57;5.53;;;;;;;27.34;46.08;100605.34;4904340;28;111612;-80
2021/06/12 06:31:53;;;;;;;6.72;6.03;;;;;;;27.53;45.79;100609.13;4937532;28;128445;-78
2021/06/12 06:34:19;;;;;;;7.03;6.13;;;;;;;27.38;46.38;100599.88;4933865;28;115588;-79
2021/06/12 06:36:46;;;;;;;6.63;6.03;;;;;;;27.80;45.47;100587.69;4939809;28;97831;-78
2021/06/12 06:39:12;;;;;;;6.32;5.82;;;;;;;27.98;45.15;100591.41;4920423;28;98835;-79
2021/06/12 06:41:38;;;;;;;7.70;6.25;;;;;;;27.20;46.20;100605.22;4918374;28;127385;-78
2021/06/12 06:44:04;;;;;;;7.82;6.15;;;;;;;27.58;46.23;100594.94;4936700;28;122172;-82
2021/06/12 06:46:30;;;;;;;10.00;7.03;;;;;;;27.18;46.08;100604.78;4937402;28;108120;-81
2021/06/12 06:48:56;;;;;;;7.40;6.70;;;;;;;26.76;47.37;100591.94;4938810;28;98848;-82
2021/06/12 06:51:22;;;;;;;6.32;5.78;;;;;;;26.21;48.64;100591.50;4920445;28;128059;-76
2021/06/12 06:53:49;;;;;;;7.45;6.70;;;;;;;25.94;49.53;100599.75;4936088;28;125972;-81
2021/06/12 06:56:15;;;;;;;8.48;6.38;;;;;;;24.73;52.64;100589.03;4917713;28;98266;-77
2021/06/12 06:58:41;;;;;;;7.00;5.90;;;;;;;24.80;52.76;100589.22;4915827;28;104664;-83
2021/06/12 07:01:07;;;;;;;16.60;9.90;;;;;;;24.16;54.15;100601.44;4910414;28;129245;-76
2021/06/12 07:03:33;;;;;;;47.22;21.48;;;;;;;23.99;54.78;100600.66;4918879;28;100049;-80
2021/06/12 07:06:00;;;;;;;7.90;7.07;;;;;;;24.32;55.20;100591.22;4920783;28;98494;-78
2021/06/12 07:08:26;;;;;;;7.20;6.43;;;;;;;24.52;53.17;100591.31;4936238;28;98919;-77
2021/06/12 07:10:52;;;;;;;8.13;6.70;;;;;;;24.47;54.13;100587.66;4921880;28;128284;-81
2021/06/12 07:13:19;;;;;;;7.45;6.78;;;;;;;24.63;52.97;100581.31;4919338;28;98295;-82
2021/06/12 07:15:46;;;;;;;7.10;6.40;;;;;;;25.60;50.84;100576.66;4905349;28;98885;-81
2021/06/12 07:18:12;;;;;;;7.40;6.57;;;;;;;26.88;47.71;100572.41;4936291;28;105043;-78
2021/06/12 07:20:38;;;;;;;7.95;6.40;;;;;;;26.95;48.06;100570.88;4919774;28;98636;-81
2021/06/12 07:23:04;;;;;;;7.65;6.85;;;;;;;26.79;48.19;100569.09;4936053;28;99425;-82
2021/06/12 07:25:30;;;;;;;7.60;6.50;;;;;;;27.70;46.40;100557.88;4886560;28;98158;-82
2021/06/12 07:27:56;;;;;;;8.05;6.80;;;;;;;26.98;47.00;100572.91;4934774;28;111491;-82
2021/06/12 07:30:22;;;;;;;7.22;6.53;;;;;;;26.78;47.69;100572.25;4902873;28;100181;-77
2021/06/12 07:32:48;;;;;;;7.45;6.55;;;;;;;26.13;49.47;100581.50;4903045;28;104671;-82
2021/06/12 07:35:14;;;;;;;8.02;6.65;;;;;;;26.24;48.10;100576.16;4905009;28;99084;-81
2021/06/12 07:37:40;;;;;;;7.55;6.28;;;;;;;26.31;47.86;100579.03;4932582;28;128336;-77
2021/06/12 07:40:07;;;;;;;7.65;5.78;;;;;;;26.20;48.17;100584.38;4918804;28;127267;-82
2021/06/12 07:42:33;;;;;;;7.00;6.22;;;;;;;25.94;48.71;100585.16;4901691;28;103765;-78
2021/06/12 07:44:59;;;;;;;6.60;5.82;;;;;;;25.86;49.11;100583.41;4919533;28;99035;-82
2021/06/12 07:47:25;;;;;;;6.45;5.63;;;;;;;25.74;49.99;100570.56;4934094;28;128105;-81
2021/06/12 07:49:52;;;;;;;7.13;5.68;;;;;;;25.56;50.42;100575.78;4937733;28;128359;-77
2021/06/12 07:52:18;;;;;;;6.13;5.53;;;;;;;25.51;50.37;100581.59;4884423;28;107352;-78
2021/06/12 07:54:44;;;;;;;6.13;5.53;;;;;;;25.52;50.58;100577.69;4902118;28;120413;-82
2021/06/12 07:57:10;;;;;;;6.78;6.18;;;;;;;25.31;51.14;100580.84;4900281;28;128535;-81
2021/06/12 07:59:36;;;;;;;6.70;6.00;;;;;;;25.38;50.28;100571.88;4931901;28;98822;-79
2021/06/12 08:02:02;;;;;;;7.15;5.93;;;;;;;24.98;51.80;100567.53;4933528;28;127814;-77
2021/06/12 08:04:29;;;;;;;6.70;5.95;;;;;;;24.94;51.56;100566.66;4919641;28;104083;-80
2021/06/12 08:06:55;;;;;;;8.80;6.65;;;;;;;25.26;50.38;100553.53;4919691;28;98516;-83
2021/06/12 08:09:21;;;;;;;16.17;6.60;;;;;;;25.81;49.88;100556.94;4902026;28;127743;-80
2021/06/12 08:11:47;;;;;;;12.30;6.32;;;;;;;26.23;49.32;100556.03;4883482;28;100453;-83
2021/06/12 08:14:13;;;;;;;13.05;6.70;;;;;;;26.98;46.54;100548.00;4900169;28;118109;-84
2021/06/12 08:16:39;;;;;;;16.05;6.90;;;;;;;27.45;45.77;100554.88;4901208;28;101700;-77
2021/06/12 08:19:05;;;;;;;7.70;6.13;;;;;;;27.87;44.63;100554.53;4919445;28;101701;-82
2021/06/12 08:21:31;;;;;;;12.73;6.32;;;;;;;28.33;43.60;100568.72;4900955;28;98491;-78
2021/06/12 08:23:57;;;;;;;9.88;5.68;;;;;;;28.20;43.52;100566.66;4917208;28;98335;-82
2021/06/12 08:26:23;;;;;;;7.47;6.00;;;;;;;27.64;45.64;100569.31;4932704;28;98620;-82
2021/06/12 08:28:50;;;;;;;7.18;6.47;;;;;;;26.87;45.56;100562.47;4935375;28;128004;-78
2021/06/12 08:31:16;;;;;;;7.32;6.60;;;;;;;27.67;44.74;100553.94;4889065;28;100584;-79
2021/06/12 08:33:42;;;;;;;7.13;6.18;;;;;;;28.19;43.15;100548.44;4887879;28;97762;-77
2021/06/12 08:36:08;;;;;;;6.97;6.22;;;;;;;27.86;44.39;100539.88;4902804;28;100316;-82
2021/06/12 08:38:34;;;;;;;7.00;6.28;;;;;;;27.10;45.94;100545.81;4899382;28;98164;-84
2021/06/12 08:41:00;;;;;;;5.80;5.30;;;;;;;28.30;44.01;100552.88;4915240;28;98434;-83
2021/06/12 08:43:28;;;;;;;8.02;5.68;;;;;;;28.51;43.85;100556.97;4899541;28;118069;-78
2021/06/12 08:45:55;;;;;;;6.70;6.00;;;;;;;27.75;44.55;100550.06;4899285;28;100944;-77
2021/06/12 08:48:22;;;;;;;9.40;7.07;;;;;;;26.88;46.04;100552.22;4887763;28;101032;-80
2021/06/12 08:50:49;;;;;;;11.05;6.93;;;;;;;26.85;47.00;100544.69;4904207;28;98388;-78
2021/06/12 08:53:15;;;;;;;9.10;6.30;;;;;;;28.34;42.64;100531.53;4936544;28;97998;-80
2021/06/12 08:55:42;;;;;;;8.25;6.30;;;;;;;26.50;46.63;100547.78;4884110;28;101330;-84
2021/06/12 08:58:08;;;;;;;7.28;6.60;;;;;;;27.90;43.60;100542.66;4903900;28;98749;-85
2021/06/12 09:00:34;;;;;;;8.35;6.50;;;;;;;27.87;44.34;100543.44;4911947;28;97951;-77
2021/06/12 09:03:07;;;;;;;7.10;6.10;;;;;;;27.46;45.17;100539.88;4912982;28;99695;-76
2021/06/12 09:05:47;;;;;;;7.70;6.10;;;;;;;27.37;46.18;100545.72;4912367;28;101947;-84
2021/06/12 09:08:13;;;;;;;8.32;6.38;;;;;;;27.05;45.23;100545.34;4919628;28;99248;-79
2021/06/12 09:11:03;;;;;;;6.93;6.10;;;;;;;27.16;45.21;100538.78;4917227;28;98102;-84
2021/06/12 09:13:48;;;;;;;5.82;5.28;;;;;;;27.13;45.85;100531.22;4937687;28;97858;-76
2021/06/12 09:16:33;;;;;;;5.85;5.15;;;;;;;27.38;45.29;100530.69;4935258;28;98397;-83
2021/06/12 09:19:20;;;;;;;5.90;5.30;;;;;;;26.48;47.85;100530.75;4937794;28;98850;-77
2021/06/12 09:21:50;;;;;;;5.35;4.82;;;;;;;26.13;48.09;100537.31;4908619;28;98322;-85
2021/06/12 09:24:34;;;;;;;5.43;4.93;;;;;;;26.65;47.06;100527.47;4935500;28;102101;-84
2021/06/12 09:27:13;;;;;;;6.20;5.60;;;;;;;27.07;45.06;100527.16;4906302;28;100921;-78
2021/06/12 09:29:44;;;;;;;5.80;5.07;;;;;;;27.58;44.64;100520.22;4907148;28;97997;-78
2021/06/12 09:32:27;;;;;;;5.80;5.30;;;;;;;28.59;41.78;100519.81;4923006;28;100384;-83
2021/06/12 09:34:56;;;;;;;4.25;3.85;;;;;;;29.11;40.34;100528.75;4922920;28;97969;-82
2021/06/12 09:37:27;;;;;;;4.50;3.88;;;;;;;28.52;40.79;100523.31;4908568;28;98530;-83
2021/06/12 09:40:11;;;;;;;4.43;3.85;;;;;;;27.51;42.70;100532.03;4922758;28;98466;-78
2021/06/12 09:42:56;;;;;;;3.55;3.25;;;;;;;27.66;42.29;100530.97;4906185;28;100244;-77
2021/06/12 09:45:33;;;;;;;4.18;3.78;;;;;;;26.10;45.70;100527.84;4905176;28;109809;-84
2021/06/12 09:48:17;;;;;;;4.15;3.75;;;;;;;25.88;46.27;100532.22;4939310;28;99253;-78
2021/06/12 09:50:45;;;;;;;4.30;3.90;;;;;;;26.53;44.73;100534.00;4907155;28;101442;-86
2021/06/12 09:53:20;;;;;;;4.13;3.50;;;;;;;26.66;45.02;100518.78;4922134;28;100532;-76
2021/06/12 09:55:46;;;;;;;4.30;3.95;;;;;;;27.08;43.29;100506.66;4924170;28;98409;-77
2021/06/12 09:58:12;;;;;;;4.47;3.75;;;;;;;28.07;41.71;100511.56;4918295;28;126533;-77
2021/06/12 10:00:46;;;;;;;3.45;3.15;;;;;;;29.18;40.28;100512.13;4902659;28;101468;-86
2021/06/12 10:03:21;;;;;;;3.72;3.42;;;;;;;29.05;38.93;100510.91;4922089;28;98323;-84
2021/06/12 10:05:47;;;;;;;5.43;3.88;;;;;;;29.57;38.73;100511.41;4938441;28;97892;-77
2021/06/12 10:08:18;;;;;;;5.60;4.40;;;;;;;28.89;41.11;100505.69;4921404;28;103193;-77
2021/06/12 10:10:47;;;;;;;4.60;4.20;;;;;;;28.21;40.23;100507.28;4912161;28;98752;-77
2021/06/12 10:13:14;;;;;;;5.60;4.45;;;;;;;27.98;40.54;100496.44;4888323;28;100005;-84
2021/06/12 10:15:40;;;;;;;4.63;4.20;;;;;;;29.36;38.10;100495.53;4885350;28;116938;-85
2021/06/12 10:18:06;;;;;;;5.57;4.60;;;;;;;30.51;36.98;100499.81;4906313;28;98818;-76
2021/06/12 10:20:32;;;;;;;5.22;4.80;;;;;;;29.69;37.56;100488.03;4904532;28;114965;-78
2021/06/12 10:22:58;;;;;;;5.07;4.32;;;;;;;28.26;40.45;100491.09;4920902;28;113993;-77
2021/06/12 10:25:24;;;;;;;4.70;4.22;;;;;;;27.48;43.03;100496.00;4935561;28;118161;-83
2021/06/12 10:27:50;;;;;;;4.57;4.10;;;;;;;27.36;42.73;100488.78;4916690;28;98992;-76
2021/06/12 10:30:20;;;;;;;4.38;3.97;;;;;;;26.80;43.43;100486.94;4913666;28;121406;-76
2021/06/12 10:32:52;;;;;;;4.65;4.25;;;;;;;26.53;44.50;100480.72;4895467;28;107710;-78
2021/06/12 10:35:24;;;;;;;4.83;4.30;;;;;;;26.33;44.59;100491.06;4899185;28;98108;-76
2021/06/12 10:38:13;;;;;;;4.57;4.18;;;;;;;26.03;45.45;100480.78;4902787;28;99254;-85
2021/06/12 10:40:51;;;;;;;4.10;3.70;;;;;;;26.01;44.79;100474.03;4915248;28;98724;-85
2021/06/12 10:43:23;;;;;;;6.22;3.90;;;;;;;26.62;43.97;100464.63;4917606;28;111088;-85
2021/06/12 10:46:06;;;;;;;;;;;;;;;27.73;40.89;100474.06;4884406;28;97883;-78
2021/06/12 10:48:55;;;;;;;4.03;3.63;;;;;;;27.42;41.41;100465.91;4916554;28;100757;-88
2021/06/12 10:51:27;;;;;;;4.20;3.80;;;;;;;30.15;37.48;100470.50;4912047;28;98694;-84
2021/06/12 10:54:23;;;;;;;4.22;3.92;;;;;;;28.70;39.31;100465.19;4928924;28;99491;-78
2021/06/12 10:57:00;;;;;;;3.58;3.28;;;;;;;29.40;37.36;100460.22;4900681;28;98078;-84
2021/06/12 10:59:47;;;;;;;4.47;4.03;;;;;;;28.51;38.85;100455.22;4915922;28;98556;-84
2021/06/12 11:05:03;;;;;;;4.75;4.35;;;;;;;26.83;42.18;100440.00;4914552;28;97970;-76
2021/06/12 11:07:35;;;;;;;4.50;4.00;;;;;;;26.21;44.07;100442.34;4904756;28;98285;-85
2021/06/12 11:10:14;;;;;;;5.88;4.35;;;;;;;25.64;47.33;100460.81;4921662;28;98602;-86
2021/06/12 11:12:47;;;;;;;5.82;5.22;;;;;;;24.71;52.82;100464.59;4935766;28;98692;-76
2021/06/12 11:15:22;;;;;;;6.32;4.97;;;;;;;24.48;53.44;100467.25;4932003;28;98283;-76
2021/06/12 11:18:14;;;;;;;6.15;5.65;;;;;;;24.27;53.90;100492.34;4932448;28;97982;-73
2021/06/12 11:20:46;;;;;;;6.30;5.70;;;;;;;23.91;54.77;100516.31;4938107;28;98790;-85
2021/06/12 11:23:14;;;;;;;6.15;5.57;;;;;;;23.56;57.08;100516.19;4938989;28;98645;-84
2021/06/12 11:25:44;;;;;;;6.70;6.05;;;;;;;23.36;56.69;100515.28;4920571;28;98158;-73